createdAt,value
2017-07-01T00:00:54.886Z,20.00
2017-07-01T00:03:23.549Z,20.87
2017-07-01T00:05:51.817Z,20.70
2017-07-01T00:08:24.202Z,21.20
2017-07-01T00:10:51.680Z,20.47
2017-07-01T00:13:20.197Z,21.60
2017-07-01T00:15:50.587Z,20.90
2017-07-01T00:18:21.016Z,20.07
2017-07-01T00:20:48.507Z,20.77
2017-07-01T00:23:18.438Z,20.17
2017-07-01T00:25:47.080Z,20.97
2017-07-01T00:28:15.452Z,20.47
2017-07-01T00:30:48.985Z,21.80
2017-07-01T00:33:18.842Z,22.03
2017-07-01T00:35:46.911Z,21.63
2017-07-01T00:38:14.948Z,23.10
2017-07-01T00:40:43.002Z,23.23
2017-07-01T00:43:10.693Z,21.80
2017-07-01T00:45:39.370Z,21.57
2017-07-01T00:48:07.875Z,21.00
2017-07-01T00:50:41.881Z,21.67
2017-07-01T00:53:13.299Z,22.30
2017-07-01T00:55:41.692Z,20.63
2017-07-01T00:58:17.439Z,20.80
2017-07-01T01:03:42.986Z,19.40
2017-07-01T01:06:16.475Z,19.27
2017-07-01T01:08:46.880Z,18.40
2017-07-01T01:11:17.329Z,19.40
2017-07-01T01:13:44.855Z,19.03
2017-07-01T01:16:19.482Z,19.37
2017-07-01T01:18:47.007Z,21.13
2017-07-01T01:21:16.229Z,18.40
2017-07-01T01:23:47.828Z,18.80
2017-07-01T01:26:18.468Z,18.40
2017-07-01T01:28:47.547Z,17.33
2017-07-01T01:31:15.039Z,16.50
2017-07-01T01:33:47.142Z,17.10
2017-07-01T01:36:22.250Z,16.40
2017-07-01T01:38:50.288Z,17.43
2017-07-01T01:41:20.188Z,17.53
2017-07-01T01:43:47.719Z,16.80
2017-07-01T01:46:15.278Z,17.77
2017-07-01T01:48:42.851Z,17.27
2017-07-01T01:51:11.315Z,17.40
2017-07-01T01:53:38.789Z,16.10
2017-07-01T01:56:06.382Z,17.27
2017-07-01T01:58:33.951Z,19.07
2017-07-01T02:01:01.447Z,19.70
2017-07-01T02:03:30.863Z,18.60
2017-07-01T02:06:02.419Z,18.03
2017-07-01T02:08:48.700Z,19.23
2017-07-01T02:11:23.089Z,19.20
2017-07-01T02:13:51.376Z,19.40
2017-07-01T02:16:30.235Z,19.57
2017-07-01T02:18:57.815Z,20.50
2017-07-01T02:21:27.235Z,22.03
2017-07-01T02:23:55.532Z,22.77
2017-07-01T02:26:25.609Z,21.00
2017-07-01T02:28:55.975Z,20.93
2017-07-01T02:31:24.582Z,21.43
2017-07-01T02:33:52.943Z,21.60
2017-07-01T02:36:21.336Z,20.83
2017-07-01T02:38:48.820Z,22.80
2017-07-01T02:41:17.509Z,23.20
2017-07-01T02:43:46.212Z,23.27
2017-07-01T02:46:21.556Z,25.50
2017-07-01T02:49:17.862Z,25.37
2017-07-01T02:51:57.710Z,22.37
2017-07-01T02:54:30.500Z,24.53
2017-07-01T02:57:01.869Z,23.77
2017-07-01T02:59:45.983Z,24.30
2017-07-01T03:02:15.672Z,23.83
2017-07-01T03:04:43.911Z,26.60
2017-07-01T03:07:16.043Z,25.90
2017-07-01T03:09:44.299Z,25.07
2017-07-01T03:12:11.774Z,26.93
2017-07-01T03:14:41.032Z,26.77
2017-07-01T03:17:10.492Z,26.70
2017-07-01T03:19:41.658Z,28.43
2017-07-01T03:22:11.179Z,28.43
2017-07-01T03:24:43.854Z,27.67
2017-07-01T03:27:13.308Z,28.70
2017-07-01T03:29:41.990Z,27.97
2017-07-01T03:32:09.608Z,28.53
2017-07-01T03:34:40.111Z,29.07
2017-07-01T03:37:14.971Z,28.50
2017-07-01T03:39:57.939Z,29.50
2017-07-01T03:42:37.638Z,29.60
2017-07-01T03:45:33.307Z,28.47
2017-07-01T03:48:01.527Z,27.70
2017-07-01T03:50:34.271Z,26.67
2017-07-01T03:53:34.584Z,25.23
2017-07-01T03:56:07.317Z,24.40
2017-07-01T03:58:34.831Z,23.43
2017-07-01T04:01:03.465Z,21.20
2017-07-01T04:03:33.346Z,21.67
2017-07-01T04:06:01.739Z,20.23
2017-07-01T04:08:29.191Z,19.90
2017-07-01T04:10:56.731Z,20.17
2017-07-01T04:13:25.104Z,19.50
2017-07-01T04:15:52.575Z,18.70
2017-07-01T04:18:25.976Z,18.77
2017-07-01T04:20:53.484Z,19.70
2017-07-01T04:23:20.982Z,19.90
2017-07-01T04:25:48.474Z,19.33
2017-07-01T04:28:16.856Z,19.17
2017-07-01T04:30:45.721Z,19.43
2017-07-01T04:33:13.212Z,17.80
2017-07-01T04:35:42.109Z,19.80
2017-07-01T04:38:11.087Z,19.03
2017-07-01T04:40:43.941Z,18.80
2017-07-01T04:43:46.893Z,19.30
2017-07-01T04:46:25.436Z,19.10
2017-07-01T04:48:57.917Z,18.30
2017-07-01T04:51:49.028Z,17.63
2017-07-01T04:54:37.248Z,18.90
2017-07-01T04:57:24.766Z,18.70
2017-07-01T05:00:01.872Z,18.33
2017-07-01T05:02:30.196Z,19.20
2017-07-01T05:04:58.039Z,18.83
2017-07-01T05:07:50.230Z,17.57
2017-07-01T05:10:34.398Z,18.00
2017-07-01T05:13:01.936Z,18.53
2017-07-01T05:15:41.013Z,19.30
2017-07-01T05:18:09.237Z,18.60
2017-07-01T05:20:48.351Z,19.00
2017-07-01T05:23:33.422Z,21.90
2017-07-01T05:26:04.628Z,22.30
2017-07-01T05:28:37.516Z,22.40
2017-07-01T05:31:27.439Z,23.07
2017-07-01T05:34:14.546Z,21.40
2017-07-01T05:36:44.491Z,21.47
2017-07-01T05:39:29.806Z,22.77
2017-07-01T05:42:19.675Z,24.40
2017-07-01T05:44:52.155Z,24.10
2017-07-01T05:47:19.716Z,24.80
2017-07-01T05:49:47.280Z,23.80
2017-07-01T05:52:14.803Z,24.67
2017-07-01T05:54:43.743Z,25.60
2017-07-01T05:57:11.222Z,25.80
2017-07-01T05:59:40.201Z,26.20
2017-07-01T06:02:09.346Z,24.60
2017-07-01T06:04:36.860Z,25.13
2017-07-01T06:07:08.506Z,24.37
2017-07-01T06:12:57.542Z,23.50
2017-07-01T06:15:59.542Z,22.93
2017-07-01T06:18:40.310Z,23.97
2017-07-01T06:21:26.295Z,20.70
2017-07-01T06:23:54.718Z,21.60
2017-07-01T06:26:38.818Z,20.70
2017-07-01T06:29:18.944Z,22.67
2017-07-01T06:32:02.392Z,20.53
2017-07-01T06:34:41.762Z,19.27
2017-07-01T06:37:11.156Z,18.13
2017-07-01T06:39:39.704Z,15.77
2017-07-01T06:42:09.351Z,15.63
2017-07-01T06:44:36.975Z,15.90
2017-07-01T06:47:05.043Z,15.60
2017-07-01T06:49:47.522Z,13.70
2017-07-01T06:52:17.208Z,13.37
2017-07-01T06:54:45.239Z,13.33
2017-07-01T06:57:15.012Z,14.30
2017-07-01T06:59:43.596Z,12.87
2017-07-01T07:02:13.949Z,11.80
2017-07-01T07:04:43.607Z,13.43
2017-07-01T07:07:12.002Z,13.57
2017-07-01T07:09:39.594Z,13.20
2017-07-01T07:12:10.868Z,14.60
2017-07-01T07:14:39.662Z,11.83
2017-07-01T07:17:08.380Z,12.20
2017-07-01T07:19:37.967Z,13.33
2017-07-01T07:22:07.408Z,13.10
2017-07-01T07:24:42.828Z,10.90
2017-07-01T07:27:12.245Z,12.03
2017-07-01T07:29:40.006Z,14.07
2017-07-01T07:32:08.533Z,13.70
2017-07-01T07:34:36.409Z,12.67
2017-07-01T07:39:51.797Z,14.60
2017-07-01T07:42:23.891Z,15.70
2017-07-01T07:47:31.845Z,12.40
2017-07-01T07:50:05.352Z,12.00
2017-07-01T07:52:33.977Z,12.60
2017-07-01T07:55:01.647Z,11.37
2017-07-01T07:57:29.465Z,11.87
2017-07-01T07:59:57.128Z,11.03
2017-07-01T08:02:25.729Z,12.33
2017-07-01T08:04:53.314Z,10.17
2017-07-01T08:07:21.117Z,10.60
2017-07-01T08:10:06.045Z,9.70
2017-07-01T08:12:33.540Z,11.60
2017-07-01T08:15:03.968Z,11.47
2017-07-01T08:17:34.991Z,11.97
2017-07-01T08:20:03.334Z,13.37
2017-07-01T08:22:37.778Z,13.70
2017-07-01T08:27:52.431Z,24.70
2017-07-01T08:30:22.101Z,12.87
2017-07-01T08:32:51.580Z,13.00
2017-07-01T08:35:19.203Z,13.43
2017-07-01T08:37:47.825Z,12.90
2017-07-01T08:40:16.215Z,12.40
2017-07-01T08:42:44.929Z,12.37
2017-07-01T08:45:16.060Z,11.60
2017-07-01T08:47:45.973Z,13.00
2017-07-01T08:50:16.793Z,12.87
2017-07-01T08:52:44.437Z,12.97
2017-07-01T08:55:11.945Z,13.80
2017-07-01T08:57:42.337Z,14.40
2017-07-01T09:00:10.100Z,14.77
2017-07-01T09:02:37.690Z,13.27
2017-07-01T09:05:11.037Z,12.67
2017-07-01T09:07:38.934Z,12.47
2017-07-01T09:10:06.707Z,13.20
2017-07-01T09:12:35.326Z,10.40
2017-07-01T09:15:06.750Z,11.63
2017-07-01T09:17:34.550Z,11.40
2017-07-01T09:20:03.875Z,12.30
2017-07-01T09:22:31.373Z,13.13
2017-07-01T09:24:59.054Z,15.10
2017-07-01T09:27:26.875Z,14.60
2017-07-01T09:29:56.005Z,14.20
2017-07-01T09:32:24.472Z,15.23
2017-07-01T09:34:52.348Z,15.37
2017-07-01T09:37:20.063Z,15.83
2017-07-01T09:39:49.491Z,14.10
2017-07-01T09:42:17.403Z,13.37
2017-07-01T09:44:47.111Z,11.70
2017-07-01T09:47:18.669Z,11.80
2017-07-01T09:52:23.968Z,12.20
2017-07-01T09:54:51.799Z,12.50
2017-07-01T09:57:20.231Z,12.60
2017-07-01T09:59:54.939Z,12.30
2017-07-01T10:02:24.666Z,12.70
2017-07-01T10:04:52.367Z,12.57
2017-07-01T10:07:20.152Z,13.90
2017-07-01T10:09:47.831Z,14.83
2017-07-01T10:12:15.350Z,14.23
2017-07-01T10:14:43.633Z,16.33
2017-07-01T10:17:12.447Z,17.10
2017-07-01T10:19:40.119Z,17.30
2017-07-01T10:22:10.262Z,16.00
2017-07-01T10:24:37.809Z,15.40
2017-07-01T10:27:07.956Z,15.83
2017-07-01T10:29:37.986Z,15.73
2017-07-01T10:32:07.125Z,13.93
2017-07-01T10:34:35.053Z,14.43
2017-07-01T10:37:03.370Z,16.83
2017-07-01T10:39:31.932Z,14.30
2017-07-01T10:42:00.245Z,15.30
2017-07-01T10:44:31.460Z,16.50
2017-07-01T10:46:59.961Z,16.20
2017-07-01T10:49:27.464Z,14.80
2017-07-01T10:51:54.985Z,15.63
2017-07-01T10:54:25.658Z,15.70
2017-07-01T10:57:07.448Z,16.67
2017-07-01T10:59:39.077Z,14.67
2017-07-01T11:02:06.861Z,15.33
2017-07-01T11:04:35.783Z,11.80
2017-07-01T11:09:53.027Z,12.47
2017-07-01T11:12:26.773Z,11.27
2017-07-01T11:14:56.419Z,11.47
2017-07-01T11:17:41.540Z,10.40
2017-07-01T11:20:09.145Z,9.23
2017-07-01T11:22:36.911Z,13.00
2017-07-01T11:25:06.805Z,12.97
2017-07-01T11:27:41.797Z,10.90
2017-07-01T11:30:09.636Z,10.50
2017-07-01T11:32:38.248Z,10.50
2017-07-01T11:35:05.951Z,10.03
2017-07-01T11:37:35.461Z,9.60
2017-07-01T11:40:07.135Z,10.93
2017-07-01T11:42:37.641Z,9.50
2017-07-01T11:45:17.896Z,10.80
2017-07-01T11:47:50.429Z,11.40
2017-07-01T11:50:50.595Z,9.77
2017-07-01T11:56:32.951Z,12.40
2017-07-01T11:59:04.847Z,13.00
2017-07-01T12:01:36.686Z,12.77
2017-07-01T12:04:12.144Z,12.70
2017-07-01T12:06:43.961Z,12.40
2017-07-01T12:09:11.963Z,14.30
2017-07-01T12:11:39.498Z,13.73
2017-07-01T12:14:10.656Z,14.27
2017-07-01T12:19:19.746Z,15.13
2017-07-01T12:21:47.363Z,14.47
2017-07-01T12:24:14.999Z,15.40
2017-07-01T12:26:42.524Z,15.40
2017-07-01T12:29:10.610Z,15.77
2017-07-01T12:31:38.400Z,16.13
2017-07-01T12:34:06.562Z,15.70
2017-07-01T12:36:34.291Z,15.67
2017-07-01T12:39:01.888Z,15.60
2017-07-01T12:41:34.266Z,16.67
2017-07-01T12:44:05.629Z,16.67
2017-07-01T12:46:33.988Z,16.33
2017-07-01T12:49:01.593Z,15.90
2017-07-01T12:51:29.539Z,15.93
2017-07-01T12:53:57.225Z,16.50
2017-07-01T12:56:24.945Z,17.70
2017-07-01T12:58:52.479Z,15.57
2017-07-01T13:01:20.456Z,16.50
2017-07-01T13:03:48.637Z,18.20
2017-07-01T13:06:16.634Z,18.40
2017-07-01T13:08:44.692Z,18.47
2017-07-01T13:11:12.972Z,17.80
2017-07-01T13:13:41.162Z,19.03
2017-07-01T13:16:09.819Z,19.47
2017-07-01T13:18:37.401Z,18.63
2017-07-01T13:21:07.958Z,18.77
2017-07-01T13:23:36.756Z,17.97
2017-07-01T13:26:07.141Z,17.77
2017-07-01T13:28:38.810Z,18.67
2017-07-01T13:31:31.018Z,16.83
2017-07-01T13:33:59.843Z,19.47
2017-07-01T13:36:32.315Z,17.73
2017-07-01T13:39:00.072Z,16.07
2017-07-01T13:41:29.161Z,17.10
2017-07-01T13:43:57.319Z,19.27
2017-07-01T13:46:25.006Z,16.77
2017-07-01T13:51:31.513Z,17.57
2017-07-01T13:56:39.400Z,19.90
2017-07-01T13:59:11.744Z,19.30
2017-07-01T14:01:41.325Z,19.97
2017-07-01T14:04:09.996Z,21.00
2017-07-01T14:06:40.675Z,32.30
2017-07-01T14:09:08.502Z,33.50
2017-07-01T14:11:41.884Z,28.20
2017-07-01T14:14:09.719Z,24.13
2017-07-01T14:16:37.505Z,24.70
2017-07-01T14:19:08.941Z,20.77
2017-07-01T14:21:37.282Z,20.27
2017-07-01T14:24:08.003Z,23.20
2017-07-01T14:26:35.583Z,19.33
2017-07-01T14:29:03.268Z,19.00
2017-07-01T14:31:31.081Z,19.47
2017-07-01T14:34:00.349Z,18.00
2017-07-01T14:36:27.833Z,17.07
2017-07-01T14:38:55.572Z,20.27
2017-07-01T14:41:23.086Z,18.40
2017-07-01T14:43:51.927Z,15.10
2017-07-01T14:46:20.238Z,15.07
2017-07-01T14:48:47.801Z,14.50
2017-07-01T14:53:53.865Z,14.77
2017-07-01T14:56:21.931Z,8.70
2017-07-01T14:58:49.931Z,7.33
2017-07-01T15:01:22.681Z,8.20
2017-07-01T15:03:51.223Z,8.17
2017-07-01T15:06:18.873Z,8.30
2017-07-01T15:08:47.111Z,5.80
2017-07-01T15:11:16.709Z,5.40
2017-07-01T15:13:44.797Z,4.70
2017-07-01T15:16:14.314Z,4.40
2017-07-01T15:18:43.673Z,4.67
2017-07-01T15:21:15.558Z,4.70
2017-07-01T15:23:49.045Z,5.73
2017-07-01T15:26:20.823Z,6.10
2017-07-01T15:28:57.512Z,5.20
2017-07-01T15:31:26.998Z,5.63
2017-07-01T15:33:54.560Z,5.90
2017-07-01T15:36:22.586Z,5.73
2017-07-01T15:38:50.258Z,6.10
2017-07-01T15:41:17.951Z,6.37
2017-07-01T15:43:51.424Z,6.03
2017-07-01T15:46:22.210Z,5.53
2017-07-01T15:48:49.914Z,5.63
2017-07-01T15:51:17.647Z,4.70
2017-07-01T15:56:30.011Z,6.33
2017-07-01T15:58:58.413Z,5.03
2017-07-01T16:01:42.034Z,5.30
2017-07-01T16:04:16.106Z,5.57
2017-07-01T16:06:48.904Z,5.93
2017-07-01T16:09:18.122Z,5.70
2017-07-01T16:11:48.465Z,5.43
2017-07-01T16:14:22.981Z,6.00
2017-07-01T16:16:56.576Z,7.80
2017-07-01T16:19:25.057Z,6.20
2017-07-01T16:21:53.967Z,6.50
2017-07-01T16:26:55.716Z,6.43
2017-07-01T16:29:24.504Z,7.57
2017-07-01T16:31:52.083Z,6.73
2017-07-01T16:34:19.686Z,6.63
2017-07-01T16:36:47.336Z,6.03
2017-07-01T16:42:10.634Z,7.00
2017-07-01T16:44:56.549Z,6.97
2017-07-01T16:47:27.837Z,7.30
2017-07-01T16:49:55.450Z,6.47
2017-07-01T16:52:24.088Z,6.17
2017-07-01T16:54:51.569Z,6.47
2017-07-01T16:57:19.144Z,8.40
2017-07-01T16:59:46.680Z,6.37
2017-07-01T17:02:14.185Z,7.30
2017-07-01T17:04:46.200Z,7.30
2017-07-01T17:07:18.667Z,6.93
2017-07-01T17:09:51.185Z,7.40
2017-07-01T17:12:19.503Z,7.03
2017-07-01T17:14:49.212Z,11.87
2017-07-01T17:17:17.937Z,8.00
2017-07-01T17:19:45.648Z,10.00
2017-07-01T17:22:21.957Z,9.90
2017-07-01T17:24:54.949Z,9.50
2017-07-01T17:27:26.119Z,8.97
2017-07-01T17:29:54.793Z,10.00
2017-07-01T17:32:23.346Z,10.13
2017-07-01T17:34:51.236Z,9.73
2017-07-01T17:37:18.772Z,10.50
2017-07-01T17:39:46.563Z,11.10
2017-07-01T17:42:14.135Z,10.93
2017-07-01T17:44:41.666Z,11.23
2017-07-01T17:47:10.165Z,10.37
2017-07-01T17:49:39.544Z,9.57
2017-07-01T17:52:07.201Z,9.67
2017-07-01T17:54:34.833Z,10.77
2017-07-01T17:57:02.991Z,10.80
2017-07-01T17:59:30.720Z,11.47
2017-07-01T18:01:58.568Z,11.60
2017-07-01T18:04:26.168Z,11.73
2017-07-01T18:06:53.752Z,11.67
2017-07-01T18:09:21.345Z,11.37
2017-07-01T18:11:48.941Z,13.20
2017-07-01T18:14:16.590Z,13.70
2017-07-01T18:16:44.059Z,12.93
2017-07-01T18:19:11.610Z,13.73
2017-07-01T18:21:39.130Z,13.53
2017-07-01T18:24:06.619Z,12.00
2017-07-01T18:26:34.412Z,13.07
2017-07-01T18:29:02.389Z,14.70
2017-07-01T18:31:31.299Z,14.60
2017-07-01T18:33:59.519Z,13.43
2017-07-01T18:36:28.681Z,14.50
2017-07-01T18:38:58.347Z,14.27
2017-07-01T18:41:25.927Z,14.33
2017-07-01T18:43:54.077Z,14.17
2017-07-01T18:46:21.871Z,14.93
2017-07-01T18:48:49.928Z,15.60
2017-07-01T18:51:17.510Z,16.80
2017-07-01T18:53:44.998Z,16.37
2017-07-01T18:56:12.561Z,16.50
2017-07-01T18:58:40.435Z,16.13
2017-07-01T19:01:08.927Z,16.63
2017-07-01T19:03:36.471Z,18.27
2017-07-01T19:06:04.841Z,16.10
2017-07-01T19:08:32.442Z,17.07
2017-07-01T19:11:00.884Z,15.80
2017-07-01T19:13:28.632Z,17.03
2017-07-01T19:15:57.203Z,20.10
2017-07-01T19:18:24.693Z,20.97
2017-07-01T19:20:52.179Z,20.10
2017-07-01T19:23:19.709Z,19.90
2017-07-01T19:25:47.520Z,19.40
2017-07-01T19:28:15.853Z,20.00
2017-07-01T19:30:43.515Z,23.23
2017-07-01T19:33:11.098Z,21.87
2017-07-01T19:35:38.558Z,20.23
2017-07-01T19:38:06.087Z,22.17
2017-07-01T19:40:34.746Z,22.63
2017-07-01T19:43:03.105Z,23.97
2017-07-01T19:45:30.672Z,21.60
2017-07-01T19:47:58.250Z,24.37
2017-07-01T19:50:25.970Z,24.47
2017-07-01T19:52:53.551Z,23.83
2017-07-01T19:55:21.259Z,24.83
2017-07-01T19:57:48.880Z,23.30
2017-07-01T20:00:17.150Z,22.67
2017-07-01T20:02:45.784Z,26.10
2017-07-01T20:05:14.694Z,24.97
2017-07-01T20:07:42.697Z,26.93
2017-07-01T20:10:11.508Z,24.60
2017-07-01T20:12:46.200Z,21.70
2017-07-01T20:15:13.896Z,22.80
2017-07-01T20:22:53.363Z,20.43
2017-07-01T20:25:20.888Z,22.20
2017-07-01T20:27:49.245Z,18.20
2017-07-01T20:30:16.972Z,17.63
2017-07-01T20:32:46.790Z,18.97
2017-07-01T20:35:14.811Z,17.40
2017-07-01T20:37:42.487Z,19.47
2017-07-01T20:40:10.316Z,17.97
2017-07-01T20:42:38.297Z,18.53
2017-07-01T20:45:06.683Z,18.03
2017-07-01T20:47:34.350Z,18.23
2017-07-01T20:50:04.897Z,18.93
2017-07-01T20:52:33.085Z,19.07
2017-07-01T20:55:02.358Z,23.00
2017-07-01T20:57:33.826Z,21.30
2017-07-01T21:00:03.451Z,20.37
2017-07-01T21:02:34.117Z,18.73
2017-07-01T21:05:01.715Z,19.93
2017-07-01T21:07:29.292Z,19.90
2017-07-01T21:09:56.756Z,19.07
2017-07-01T21:12:24.263Z,18.40
2017-07-01T21:14:51.891Z,18.50
2017-07-01T21:17:20.301Z,17.40
2017-07-01T21:19:48.419Z,17.70
2017-07-01T21:22:16.872Z,17.67
2017-07-01T21:24:44.912Z,20.37
2017-07-01T21:27:12.511Z,15.03
2017-07-01T21:29:40.074Z,14.60
2017-07-01T21:32:07.524Z,13.73
2017-07-01T21:34:35.111Z,10.33
2017-07-01T21:37:02.913Z,9.43
2017-07-01T21:39:30.653Z,9.43
2017-07-01T21:41:58.421Z,8.60
2017-07-01T21:44:26.356Z,8.60
2017-07-01T21:46:53.828Z,9.27
2017-07-01T21:49:22.052Z,8.13
2017-07-01T21:51:50.254Z,7.97
2017-07-01T21:54:17.741Z,8.00
2017-07-01T21:56:45.344Z,8.47
2017-07-01T21:59:13.108Z,7.10
2017-07-01T22:01:40.589Z,7.53
2017-07-01T22:04:08.047Z,7.70
2017-07-01T22:06:35.572Z,8.23
2017-07-01T22:09:03.085Z,7.40
2017-07-01T22:11:31.438Z,7.50
2017-07-01T22:13:59.053Z,6.73
2017-07-01T22:16:26.861Z,6.70
2017-07-01T22:18:54.557Z,7.70
2017-07-01T22:21:22.342Z,7.10
2017-07-01T22:23:50.064Z,7.70
2017-07-01T22:26:17.564Z,7.17
2017-07-01T22:28:45.029Z,8.33
2017-07-01T22:31:12.684Z,7.20
2017-07-01T22:33:40.201Z,7.40
2017-07-01T22:36:07.752Z,6.83
2017-07-01T22:38:35.463Z,7.17
2017-07-01T22:41:02.988Z,8.43
2017-07-01T22:43:30.688Z,7.43
2017-07-01T22:45:58.239Z,7.90
2017-07-01T22:48:26.058Z,7.00
2017-07-01T22:50:55.358Z,6.90
2017-07-01T22:53:23.593Z,6.70
2017-07-01T22:55:51.216Z,7.00
2017-07-01T22:58:18.859Z,8.53
2017-07-01T23:00:46.451Z,8.37
2017-07-01T23:03:14.494Z,6.73
2017-07-01T23:05:41.985Z,7.87
2017-07-01T23:08:09.612Z,7.60
2017-07-01T23:10:37.184Z,7.37
2017-07-01T23:13:05.308Z,9.13
2017-07-01T23:15:32.875Z,9.80
2017-07-01T23:18:00.328Z,8.43
2017-07-01T23:20:27.800Z,8.10
2017-07-01T23:22:55.257Z,8.53
2017-07-01T23:25:22.743Z,8.07
2017-07-01T23:27:50.381Z,8.00
2017-07-01T23:30:17.872Z,7.27
2017-07-01T23:32:45.560Z,8.27
2017-07-01T23:35:13.082Z,7.60
2017-07-01T23:37:40.564Z,8.13
2017-07-01T23:40:09.506Z,7.60
2017-07-01T23:42:37.694Z,7.30
2017-07-01T23:45:05.163Z,7.53
2017-07-01T23:47:32.776Z,8.97
2017-07-01T23:50:00.375Z,7.70
2017-07-01T23:52:27.861Z,8.73
2017-07-01T23:54:55.623Z,8.13
2017-07-01T23:57:23.092Z,7.00
2017-07-01T23:59:50.598Z,8.10
